Istanbul, Turkey

5:41 PM EEST on September 17, 2014 (GMT +0300)
Ataturk | Change Station
CLOSE
Current Station
Airport
Location: Istanbul,
Elevation: 121 ft
Nearby Weather Stations

Elev 121 ft 40.98 °N, 28.81 °E | Updated 21 minutes ago

Mostly Cloudy
Mostly Cloudy
70 °F
Feels Like 70 °F
N
21
Wind Variable Wind from North

Today
High -- | Low -- °F
--% Chance of Precip.
Yesterday
High -- | Low -- °F
Precip. -- in
6:46 AM 7:10 PM
Waning Crescent, 35% visible
Pressure 29.89 in
Visibility 6.2 miles
Clouds Few 2000 ft
Scattered Clouds 3500 ft
Mostly Cloudy 8000 ft
Dew Point 61 °F
Humidity 73%
Rainfall 0.00 in
Snow Depth Not available.
UV 1 out of 12
Pollen Not available.
Air Quality Not available.
Flu Activity Not available.
METAR LTBA 171420Z 35018KT 9999 FEW020 SCT035 BKN080 21/16 Q1012 NOSIG RMK RWY17L 01016KT RWY05 36013KT 330V040 RWY23 01015KT

More Conditions Fewer Conditions

Pressure 29.89 in
Visibility 6.2 miles
Clouds Few 2000 ft
Scattered Clouds 3500 ft
Mostly Cloudy 8000 ft
Dew Point 61 °F
Humidity 73%
Rainfall 0.00 in
Snow Depth Not available.
UV 1 out of 12
Pollen Not available.
Air Quality Not available.
Flu Activity Not available.
METAR LTBA 171420Z 35018KT 9999 FEW020 SCT035 BKN080 21/16 Q1012 NOSIG RMK RWY17L 01016KT RWY05 36013KT 330V040 RWY23 01015KT

More Conditions Fewer Conditions

10-Day Weather Forecast

Almanac

Astronomy

Sep. 17, 2014 Rise Set
Actual Time 6:46 AM EEST 7:10 PM EEST
Civil Twilight 6:19 AM EEST 7:38 PM EEST
Nautical Twilight 5:46 AM EEST 8:10 PM EEST
Astronomical Twilight 5:13 AM EEST 8:43 PM EEST
Moon 12:28 AM EEST 3:08 PM EEST
Length of Visible Light 13h 19m
Length of Day
12h 24m
Tomorrow will be 2m 42s shorter.
Waning Crescent, 35% of the Moon is Illuminated
Today
Waning Crescent
Sep 24
New
Oct 1
First Quarter
Oct 8
Full
Oct 15
Last Quarter

Today's Extremes

Country Highs Country Lows

Community

WunderPhotos

Upload Photos

1,754,060 photos uploaded!

WunderBlogs® & News

By Dr. Jeff Masters
Director of Meteorology, Weather Underground
By Kari Strenfel
Meteorologist, Weather Underground
By Christopher C. Burt
Weather Historian, Weather Underground
September 17, 2014
September 17, 2014
September 17, 2014

Nearby

Snow Depth

Not available.

Earthquake Activity

City Distance Mag. Time & Date
No recent earthquake activity has been reported nearby.
Minimum magnitude displayed is 2.5.

Coastal Water Temperatures

Place Temperature
No Stations Reporting

Nearby Weather Stations